Terminal Aerodrome Forecast
Issued by NWS Rapid City, SD

Home | Current Version | Previous Version | Text Only | Print | Product List | Glossary On
Versions: 1 2 3 4 5 6 7 8 9 10 11 12 13 14 15 16 17 18 19 20 21 22 23
000
FTUS43 KUNR 310100 AAA
TAFRAP
TAF AMD
KRAP 310123Z 3101/3124 34017G27KT P6SM SCT090 OVC150
     FM310400 33015G25KT P6SM BKN150 OVC250
     FM310900 32015KT P6SM BKN250
     FM311900 36011KT P6SM -TSRA OVC050CB=

USA.gov is the U.S. government's official web portal to all federal, state and local government web resources and services.